sensor_id;sensor_type;location;lat;lon;timestamp;P1;durP1;ratioP1;P2;durP2;ratioP2
59300;SDS011;45073;52.740;6.784;2023-07-16T00:01:57;8.50;;;3.40;;
59300;SDS011;45073;52.740;6.784;2023-07-16T00:04:23;8.80;;;3.58;;
59300;SDS011;45073;52.740;6.784;2023-07-16T00:06:49;9.05;;;3.42;;
59300;SDS011;45073;52.740;6.784;2023-07-16T00:09:15;8.65;;;3.55;;
59300;SDS011;45073;52.740;6.784;2023-07-16T00:11:40;8.70;;;2.15;;
59300;SDS011;45073;52.740;6.784;2023-07-16T00:14:06;9.32;;;3.22;;
59300;SDS011;45073;52.740;6.784;2023-07-16T00:16:32;9.82;;;3.20;;
59300;SDS011;45073;52.740;6.784;2023-07-16T00:18:58;10.38;;;3.65;;
59300;SDS011;45073;52.740;6.784;2023-07-16T00:21:24;9.38;;;3.25;;
59300;SDS011;45073;52.740;6.784;2023-07-16T00:23:49;10.50;;;3.25;;
59300;SDS011;45073;52.740;6.784;2023-07-16T00:26:15;11.80;;;3.58;;
59300;SDS011;45073;52.740;6.784;2023-07-16T00:28:41;9.18;;;3.20;;
59300;SDS011;45073;52.740;6.784;2023-07-16T00:31:06;12.73;;;3.60;;
59300;SDS011;45073;52.740;6.784;2023-07-16T00:33:32;9.30;;;3.30;;
59300;SDS011;45073;52.740;6.784;2023-07-16T00:35:58;10.10;;;3.55;;
59300;SDS011;45073;52.740;6.784;2023-07-16T00:38:23;10.60;;;3.63;;
59300;SDS011;45073;52.740;6.784;2023-07-16T00:40:49;9.65;;;3.63;;
59300;SDS011;45073;52.740;6.784;2023-07-16T00:43:15;6.43;;;2.00;;
59300;SDS011;45073;52.740;6.784;2023-07-16T00:45:40;9.15;;;2.55;;
59300;SDS011;45073;52.740;6.784;2023-07-16T00:48:10;10.05;;;3.60;;
59300;SDS011;45073;52.740;6.784;2023-07-16T00:50:36;9.07;;;2.83;;
59300;SDS011;45073;52.740;6.784;2023-07-16T00:53:08;13.02;;;3.65;;
59300;SDS011;45073;52.740;6.784;2023-07-16T00:55:34;9.55;;;3.50;;
59300;SDS011;45073;52.740;6.784;2023-07-16T00:58:03;11.38;;;3.92;;
59300;SDS011;45073;52.740;6.784;2023-07-16T01:00:34;6.50;;;1.92;;
59300;SDS011;45073;52.740;6.784;2023-07-16T01:03:04;10.18;;;3.70;;
59300;SDS011;45073;52.740;6.784;2023-07-16T01:08:20;10.93;;;4.18;;
59300;SDS011;45073;52.740;6.784;2023-07-16T01:10:52;10.10;;;4.10;;
59300;SDS011;45073;52.740;6.784;2023-07-16T01:13:18;12.98;;;3.95;;
59300;SDS011;45073;52.740;6.784;2023-07-16T01:15:44;8.88;;;2.67;;
59300;SDS011;45073;52.740;6.784;2023-07-16T01:18:10;12.50;;;4.63;;
59300;SDS011;45073;52.740;6.784;2023-07-16T01:20:36;9.68;;;2.95;;
59300;SDS011;45073;52.740;6.784;2023-07-16T01:28:44;12.10;;;4.53;;
59300;SDS011;45073;52.740;6.784;2023-07-16T01:31:14;8.90;;;2.75;;
59300;SDS011;45073;52.740;6.784;2023-07-16T01:33:42;12.63;;;4.50;;
59300;SDS011;45073;52.740;6.784;2023-07-16T01:36:08;9.77;;;4.18;;
59300;SDS011;45073;52.740;6.784;2023-07-16T01:38:34;16.77;;;4.28;;
59300;SDS011;45073;52.740;6.784;2023-07-16T01:41:01;8.23;;;3.10;;
59300;SDS011;45073;52.740;6.784;2023-07-16T01:43:26;10.70;;;4.35;;
59300;SDS011;45073;52.740;6.784;2023-07-16T01:45:52;9.27;;;3.03;;
59300;SDS011;45073;52.740;6.784;2023-07-16T01:48:31;12.02;;;4.20;;
59300;SDS011;45073;52.740;6.784;2023-07-16T01:50:58;10.52;;;4.00;;
59300;SDS011;45073;52.740;6.784;2023-07-16T01:53:24;11.35;;;4.43;;
59300;SDS011;45073;52.740;6.784;2023-07-16T01:55:50;10.10;;;4.30;;
59300;SDS011;45073;52.740;6.784;2023-07-16T01:58:15;10.38;;;3.97;;
59300;SDS011;45073;52.740;6.784;2023-07-16T02:00:42;10.73;;;3.90;;
59300;SDS011;45073;52.740;6.784;2023-07-16T02:03:08;11.00;;;2.90;;
59300;SDS011;45073;52.740;6.784;2023-07-16T02:05:33;11.75;;;4.53;;
59300;SDS011;45073;52.740;6.784;2023-07-16T02:07:59;10.68;;;4.22;;
59300;SDS011;45073;52.740;6.784;2023-07-16T02:10:25;11.27;;;4.15;;
59300;SDS011;45073;52.740;6.784;2023-07-16T02:12:51;11.63;;;4.50;;
59300;SDS011;45073;52.740;6.784;2023-07-16T02:15:16;12.18;;;3.97;;
59300;SDS011;45073;52.740;6.784;2023-07-16T02:17:43;10.13;;;3.08;;
59300;SDS011;45073;52.740;6.784;2023-07-16T02:20:09;10.73;;;3.97;;
59300;SDS011;45073;52.740;6.784;2023-07-16T02:22:35;9.68;;;3.72;;
59300;SDS011;45073;52.740;6.784;2023-07-16T02:25:01;11.82;;;4.20;;
59300;SDS011;45073;52.740;6.784;2023-07-16T02:27:27;12.57;;;4.00;;
59300;SDS011;45073;52.740;6.784;2023-07-16T02:29:53;11.20;;;4.00;;
59300;SDS011;45073;52.740;6.784;2023-07-16T02:32:18;12.60;;;4.18;;
59300;SDS011;45073;52.740;6.784;2023-07-16T02:34:44;14.38;;;2.83;;
59300;SDS011;45073;52.740;6.784;2023-07-16T02:37:09;11.35;;;3.00;;
59300;SDS011;45073;52.740;6.784;2023-07-16T02:39:35;10.93;;;4.00;;
59300;SDS011;45073;52.740;6.784;2023-07-16T02:42:01;10.80;;;2.75;;
59300;SDS011;45073;52.740;6.784;2023-07-16T02:44:26;10.82;;;2.85;;
59300;SDS011;45073;52.740;6.784;2023-07-16T02:46:52;11.98;;;4.05;;
59300;SDS011;45073;52.740;6.784;2023-07-16T02:49:18;12.00;;;4.72;;
59300;SDS011;45073;52.740;6.784;2023-07-16T02:51:43;7.82;;;3.25;;
59300;SDS011;45073;52.740;6.784;2023-07-16T02:54:09;10.55;;;4.53;;
59300;SDS011;45073;52.740;6.784;2023-07-16T02:56:34;11.27;;;4.80;;
59300;SDS011;45073;52.740;6.784;2023-07-16T02:59:00;10.93;;;5.00;;
59300;SDS011;45073;52.740;6.784;2023-07-16T03:01:25;13.98;;;3.83;;
59300;SDS011;45073;52.740;6.784;2023-07-16T03:03:51;12.65;;;4.72;;
59300;SDS011;45073;52.740;6.784;2023-07-16T03:06:17;12.60;;;5.15;;
59300;SDS011;45073;52.740;6.784;2023-07-16T03:08:42;11.50;;;4.80;;
59300;SDS011;45073;52.740;6.784;2023-07-16T03:11:10;13.25;;;4.80;;
59300;SDS011;45073;52.740;6.784;2023-07-16T03:13:36;13.85;;;4.50;;
59300;SDS011;45073;52.740;6.784;2023-07-16T03:16:01;12.25;;;4.53;;
59300;SDS011;45073;52.740;6.784;2023-07-16T03:18:27;10.82;;;4.35;;
59300;SDS011;45073;52.740;6.784;2023-07-16T03:20:54;12.57;;;4.45;;
59300;SDS011;45073;52.740;6.784;2023-07-16T03:23:20;11.23;;;4.10;;
59300;SDS011;45073;52.740;6.784;2023-07-16T03:25:45;13.30;;;4.53;;
59300;SDS011;45073;52.740;6.784;2023-07-16T03:28:11;11.82;;;4.78;;
59300;SDS011;45073;52.740;6.784;2023-07-16T03:30:36;9.75;;;2.50;;
59300;SDS011;45073;52.740;6.784;2023-07-16T03:33:02;11.93;;;4.85;;
59300;SDS011;45073;52.740;6.784;2023-07-16T03:35:29;17.40;;;5.13;;
59300;SDS011;45073;52.740;6.784;2023-07-16T03:37:55;13.00;;;4.43;;
59300;SDS011;45073;52.740;6.784;2023-07-16T03:40:25;15.77;;;5.53;;
59300;SDS011;45073;52.740;6.784;2023-07-16T03:42:51;11.10;;;4.70;;
59300;SDS011;45073;52.740;6.784;2023-07-16T03:45:17;11.00;;;4.78;;
59300;SDS011;45073;52.740;6.784;2023-07-16T03:47:43;13.05;;;5.10;;
59300;SDS011;45073;52.740;6.784;2023-07-16T03:50:09;12.25;;;5.00;;
59300;SDS011;45073;52.740;6.784;2023-07-16T03:52:35;18.17;;;3.50;;
59300;SDS011;45073;52.740;6.784;2023-07-16T03:55:00;16.27;;;5.45;;
59300;SDS011;45073;52.740;6.784;2023-07-16T03:57:30;12.30;;;4.82;;
59300;SDS011;45073;52.740;6.784;2023-07-16T03:59:55;14.57;;;5.50;;
59300;SDS011;45073;52.740;6.784;2023-07-16T04:02:21;12.45;;;3.17;;
59300;SDS011;45073;52.740;6.784;2023-07-16T04:04:47;10.65;;;5.22;;
59300;SDS011;45073;52.740;6.784;2023-07-16T04:07:12;10.55;;;3.45;;
59300;SDS011;45073;52.740;6.784;2023-07-16T04:09:38;14.25;;;5.40;;
59300;SDS011;45073;52.740;6.784;2023-07-16T04:12:05;13.35;;;4.70;;
59300;SDS011;45073;52.740;6.784;2023-07-16T04:14:31;9.57;;;2.72;;
59300;SDS011;45073;52.740;6.784;2023-07-16T04:16:57;11.80;;;4.85;;
59300;SDS011;45073;52.740;6.784;2023-07-16T04:19:22;12.38;;;4.93;;
59300;SDS011;45073;52.740;6.784;2023-07-16T04:21:48;13.45;;;5.07;;
59300;SDS011;45073;52.740;6.784;2023-07-16T04:24:14;11.07;;;4.72;;
59300;SDS011;45073;52.740;6.784;2023-07-16T04:26:39;13.95;;;5.15;;
59300;SDS011;45073;52.740;6.784;2023-07-16T04:29:05;15.40;;;4.65;;
59300;SDS011;45073;52.740;6.784;2023-07-16T04:31:31;10.98;;;3.15;;
59300;SDS011;45073;52.740;6.784;2023-07-16T04:33:56;13.48;;;4.60;;
59300;SDS011;45073;52.740;6.784;2023-07-16T04:36:22;13.18;;;4.57;;
59300;SDS011;45073;52.740;6.784;2023-07-16T04:38:47;10.75;;;3.20;;
59300;SDS011;45073;52.740;6.784;2023-07-16T04:41:13;11.63;;;4.50;;
59300;SDS011;45073;52.740;6.784;2023-07-16T04:43:39;10.88;;;3.30;;
59300;SDS011;45073;52.740;6.784;2023-07-16T04:46:05;13.45;;;4.72;;
59300;SDS011;45073;52.740;6.784;2023-07-16T04:48:30;10.73;;;4.78;;
59300;SDS011;45073;52.740;6.784;2023-07-16T04:50:56;10.82;;;3.53;;
59300;SDS011;45073;52.740;6.784;2023-07-16T04:53:22;12.48;;;4.43;;
59300;SDS011;45073;52.740;6.784;2023-07-16T04:55:48;11.82;;;4.88;;
59300;SDS011;45073;52.740;6.784;2023-07-16T04:58:14;13.10;;;4.45;;
59300;SDS011;45073;52.740;6.784;2023-07-16T05:00:40;11.18;;;4.38;;
59300;SDS011;45073;52.740;6.784;2023-07-16T05:03:06;9.98;;;3.53;;
59300;SDS011;45073;52.740;6.784;2023-07-16T05:05:32;10.82;;;4.40;;
59300;SDS011;45073;52.740;6.784;2023-07-16T05:07:57;9.32;;;2.97;;
59300;SDS011;45073;52.740;6.784;2023-07-16T05:10:23;10.45;;;2.80;;
59300;SDS011;45073;52.740;6.784;2023-07-16T05:12:49;11.43;;;4.53;;
59300;SDS011;45073;52.740;6.784;2023-07-16T05:15:15;11.82;;;4.47;;
59300;SDS011;45073;52.740;6.784;2023-07-16T05:17:40;10.02;;;4.40;;
59300;SDS011;45073;52.740;6.784;2023-07-16T05:20:06;8.15;;;3.15;;
59300;SDS011;45073;52.740;6.784;2023-07-16T05:22:33;10.20;;;4.00;;
59300;SDS011;45073;52.740;6.784;2023-07-16T05:24:58;11.45;;;4.55;;
59300;SDS011;45073;52.740;6.784;2023-07-16T05:27:24;12.43;;;4.93;;
59300;SDS011;45073;52.740;6.784;2023-07-16T05:29:50;14.88;;;4.55;;
59300;SDS011;45073;52.740;6.784;2023-07-16T05:32:15;11.25;;;4.60;;
59300;SDS011;45073;52.740;6.784;2023-07-16T05:34:41;9.30;;;3.95;;
59300;SDS011;45073;52.740;6.784;2023-07-16T05:37:06;10.45;;;4.47;;
59300;SDS011;45073;52.740;6.784;2023-07-16T05:39:32;8.63;;;2.95;;
59300;SDS011;45073;52.740;6.784;2023-07-16T05:41:58;12.20;;;4.70;;
59300;SDS011;45073;52.740;6.784;2023-07-16T05:44:23;9.93;;;4.28;;
59300;SDS011;45073;52.740;6.784;2023-07-16T05:46:49;9.00;;;3.58;;
59300;SDS011;45073;52.740;6.784;2023-07-16T05:49:14;11.18;;;4.55;;
59300;SDS011;45073;52.740;6.784;2023-07-16T05:51:40;11.07;;;4.95;;
59300;SDS011;45073;52.740;6.784;2023-07-16T05:54:06;11.45;;;4.20;;
59300;SDS011;45073;52.740;6.784;2023-07-16T05:56:32;14.50;;;5.90;;
59300;SDS011;45073;52.740;6.784;2023-07-16T05:58:57;12.32;;;5.55;;
59300;SDS011;45073;52.740;6.784;2023-07-16T06:01:23;11.43;;;6.13;;
59300;SDS011;45073;52.740;6.784;2023-07-16T06:03:48;9.90;;;3.78;;
59300;SDS011;45073;52.740;6.784;2023-07-16T06:06:14;11.95;;;5.30;;
59300;SDS011;45073;52.740;6.784;2023-07-16T06:08:40;13.93;;;5.82;;
59300;SDS011;45073;52.740;6.784;2023-07-16T06:11:05;10.02;;;3.00;;
59300;SDS011;45073;52.740;6.784;2023-07-16T06:13:31;13.18;;;5.05;;
59300;SDS011;45073;52.740;6.784;2023-07-16T06:15:57;11.55;;;4.93;;
59300;SDS011;45073;52.740;6.784;2023-07-16T06:18:22;13.57;;;5.22;;
59300;SDS011;45073;52.740;6.784;2023-07-16T06:20:48;11.80;;;4.88;;
59300;SDS011;45073;52.740;6.784;2023-07-16T06:23:15;9.93;;;4.75;;
59300;SDS011;45073;52.740;6.784;2023-07-16T06:25:42;12.32;;;5.30;;
59300;SDS011;45073;52.740;6.784;2023-07-16T06:28:11;11.48;;;5.45;;
59300;SDS011;45073;52.740;6.784;2023-07-16T06:30:37;13.45;;;5.20;;
59300;SDS011;45073;52.740;6.784;2023-07-16T06:35:54;12.32;;;5.18;;
59300;SDS011;45073;52.740;6.784;2023-07-16T06:38:19;8.32;;;2.85;;
59300;SDS011;45073;52.740;6.784;2023-07-16T06:40:45;9.13;;;3.63;;
59300;SDS011;45073;52.740;6.784;2023-07-16T06:43:12;10.63;;;5.40;;
59300;SDS011;45073;52.740;6.784;2023-07-16T06:45:38;12.80;;;5.80;;
59300;SDS011;45073;52.740;6.784;2023-07-16T06:48:04;11.48;;;5.38;;
59300;SDS011;45073;52.740;6.784;2023-07-16T06:50:29;10.88;;;5.72;;
59300;SDS011;45073;52.740;6.784;2023-07-16T06:52:55;11.60;;;5.63;;
59300;SDS011;45073;52.740;6.784;2023-07-16T06:55:21;14.88;;;5.40;;
59300;SDS011;45073;52.740;6.784;2023-07-16T06:57:46;13.35;;;5.22;;
59300;SDS011;45073;52.740;6.784;2023-07-16T07:00:12;9.18;;;3.00;;
59300;SDS011;45073;52.740;6.784;2023-07-16T07:02:37;11.18;;;5.05;;
59300;SDS011;45073;52.740;6.784;2023-07-16T07:05:03;11.80;;;6.03;;
59300;SDS011;45073;52.740;6.784;2023-07-16T07:07:29;12.00;;;5.68;;
59300;SDS011;45073;52.740;6.784;2023-07-16T07:09:55;11.90;;;5.47;;
59300;SDS011;45073;52.740;6.784;2023-07-16T07:12:21;12.02;;;5.68;;
59300;SDS011;45073;52.740;6.784;2023-07-16T07:14:47;11.75;;;5.75;;
59300;SDS011;45073;52.740;6.784;2023-07-16T07:17:13;12.27;;;5.82;;
59300;SDS011;45073;52.740;6.784;2023-07-16T07:19:39;11.95;;;5.30;;
59300;SDS011;45073;52.740;6.784;2023-07-16T07:22:04;12.23;;;5.90;;
59300;SDS011;45073;52.740;6.784;2023-07-16T07:24:30;12.13;;;5.57;;
59300;SDS011;45073;52.740;6.784;2023-07-16T07:26:55;14.00;;;5.45;;
59300;SDS011;45073;52.740;6.784;2023-07-16T07:29:21;12.77;;;3.53;;
59300;SDS011;45073;52.740;6.784;2023-07-16T07:31:47;12.23;;;5.50;;
59300;SDS011;45073;52.740;6.784;2023-07-16T07:34:12;13.00;;;5.80;;
59300;SDS011;45073;52.740;6.784;2023-07-16T07:36:38;10.52;;;5.70;;
59300;SDS011;45073;52.740;6.784;2023-07-16T07:39:03;12.10;;;5.22;;
59300;SDS011;45073;52.740;6.784;2023-07-16T07:41:29;11.85;;;5.32;;
59300;SDS011;45073;52.740;6.784;2023-07-16T07:43:54;12.63;;;5.70;;
59300;SDS011;45073;52.740;6.784;2023-07-16T07:46:20;10.13;;;5.13;;
59300;SDS011;45073;52.740;6.784;2023-07-16T07:48:45;13.50;;;5.80;;
59300;SDS011;45073;52.740;6.784;2023-07-16T07:51:11;13.35;;;5.10;;
59300;SDS011;45073;52.740;6.784;2023-07-16T07:53:37;10.77;;;5.18;;
59300;SDS011;45073;52.740;6.784;2023-07-16T07:56:02;10.70;;;5.38;;
59300;SDS011;45073;52.740;6.784;2023-07-16T07:58:28;12.88;;;5.40;;
59300;SDS011;45073;52.740;6.784;2023-07-16T08:00:53;10.98;;;5.25;;
59300;SDS011;45073;52.740;6.784;2023-07-16T08:03:19;14.30;;;5.70;;
59300;SDS011;45073;52.740;6.784;2023-07-16T08:05:47;10.30;;;5.20;;
59300;SDS011;45073;52.740;6.784;2023-07-16T08:08:14;13.25;;;5.38;;
59300;SDS011;45073;52.740;6.784;2023-07-16T08:10:48;12.95;;;5.38;;
59300;SDS011;45073;52.740;6.784;2023-07-16T08:13:13;12.27;;;5.22;;
59300;SDS011;45073;52.740;6.784;2023-07-16T08:15:39;13.32;;;5.47;;
59300;SDS011;45073;52.740;6.784;2023-07-16T08:18:04;9.25;;;4.70;;
59300;SDS011;45073;52.740;6.784;2023-07-16T08:20:30;11.85;;;5.57;;
59300;SDS011;45073;52.740;6.784;2023-07-16T08:22:56;11.75;;;5.50;;
59300;SDS011;45073;52.740;6.784;2023-07-16T08:25:21;11.02;;;4.80;;
59300;SDS011;45073;52.740;6.784;2023-07-16T08:27:47;11.38;;;4.97;;
59300;SDS011;45073;52.740;6.784;2023-07-16T08:30:13;11.35;;;5.38;;
59300;SDS011;45073;52.740;6.784;2023-07-16T08:32:42;12.93;;;5.60;;
59300;SDS011;45073;52.740;6.784;2023-07-16T08:35:07;10.85;;;4.78;;
59300;SDS011;45073;52.740;6.784;2023-07-16T08:37:37;10.32;;;4.97;;
59300;SDS011;45073;52.740;6.784;2023-07-16T08:40:02;12.30;;;5.50;;
59300;SDS011;45073;52.740;6.784;2023-07-16T08:42:28;13.38;;;5.00;;
59300;SDS011;45073;52.740;6.784;2023-07-16T08:44:55;11.77;;;5.75;;
59300;SDS011;45073;52.740;6.784;2023-07-16T08:47:20;10.85;;;5.40;;
59300;SDS011;45073;52.740;6.784;2023-07-16T08:49:55;11.95;;;5.40;;
59300;SDS011;45073;52.740;6.784;2023-07-16T08:52:21;16.27;;;5.88;;
59300;SDS011;45073;52.740;6.784;2023-07-16T08:54:47;12.05;;;5.65;;
59300;SDS011;45073;52.740;6.784;2023-07-16T08:57:13;12.63;;;5.40;;
59300;SDS011;45073;52.740;6.784;2023-07-16T08:59:39;13.15;;;5.40;;
59300;SDS011;45073;52.740;6.784;2023-07-16T09:02:06;10.52;;;5.82;;
59300;SDS011;45073;52.740;6.784;2023-07-16T09:04:32;11.63;;;5.85;;
59300;SDS011;45073;52.740;6.784;2023-07-16T09:06:58;11.60;;;5.93;;
59300;SDS011;45073;52.740;6.784;2023-07-16T09:09:23;13.18;;;5.38;;
59300;SDS011;45073;52.740;6.784;2023-07-16T09:11:49;12.70;;;5.95;;
59300;SDS011;45073;52.740;6.784;2023-07-16T09:14:19;11.38;;;6.47;;
59300;SDS011;45073;52.740;6.784;2023-07-16T09:16:49;11.90;;;5.57;;
59300;SDS011;45073;52.740;6.784;2023-07-16T09:19:15;11.00;;;5.90;;
59300;SDS011;45073;52.740;6.784;2023-07-16T09:21:45;11.43;;;5.45;;
59300;SDS011;45073;52.740;6.784;2023-07-16T09:24:15;12.50;;;5.88;;
59300;SDS011;45073;52.740;6.784;2023-07-16T09:26:51;12.98;;;6.40;;
59300;SDS011;45073;52.740;6.784;2023-07-16T09:29:18;14.68;;;5.95;;
59300;SDS011;45073;52.740;6.784;2023-07-16T09:32:18;13.13;;;5.53;;
59300;SDS011;45073;52.740;6.784;2023-07-16T09:34:36;14.40;;;6.00;;
59300;SDS011;45073;52.740;6.784;2023-07-16T09:37:03;12.65;;;6.32;;
59300;SDS011;45073;52.740;6.784;2023-07-16T09:39:30;10.63;;;5.10;;
59300;SDS011;45073;52.740;6.784;2023-07-16T09:41:57;13.32;;;6.10;;
59300;SDS011;45073;52.740;6.784;2023-07-16T09:44:23;10.52;;;5.28;;
59300;SDS011;45073;52.740;6.784;2023-07-16T09:46:49;11.38;;;5.68;;
59300;SDS011;45073;52.740;6.784;2023-07-16T09:49:15;10.27;;;5.60;;
59300;SDS011;45073;52.740;6.784;2023-07-16T09:51:41;12.18;;;5.95;;
59300;SDS011;45073;52.740;6.784;2023-07-16T09:54:08;11.73;;;5.90;;
59300;SDS011;45073;52.740;6.784;2023-07-16T09:56:39;12.18;;;5.85;;
59300;SDS011;45073;52.740;6.784;2023-07-16T09:59:16;15.25;;;6.22;;
59300;SDS011;45073;52.740;6.784;2023-07-16T10:01:44;12.02;;;5.70;;
59300;SDS011;45073;52.740;6.784;2023-07-16T10:04:14;11.65;;;5.85;;
59300;SDS011;45073;52.740;6.784;2023-07-16T10:09:31;12.88;;;6.28;;
59300;SDS011;45073;52.740;6.784;2023-07-16T10:14:39;11.00;;;5.13;;
59300;SDS011;45073;52.740;6.784;2023-07-16T10:17:13;10.88;;;5.82;;
59300;SDS011;45073;52.740;6.784;2023-07-16T10:22:15;10.80;;;5.65;;
59300;SDS011;45073;52.740;6.784;2023-07-16T10:24:41;10.27;;;5.15;;
59300;SDS011;45073;52.740;6.784;2023-07-16T10:27:06;10.82;;;5.60;;
59300;SDS011;45073;52.740;6.784;2023-07-16T10:29:32;10.75;;;5.68;;
59300;SDS011;45073;52.740;6.784;2023-07-16T10:31:58;10.88;;;6.05;;
59300;SDS011;45073;52.740;6.784;2023-07-16T10:34:24;10.68;;;5.72;;
59300;SDS011;45073;52.740;6.784;2023-07-16T10:36:51;11.68;;;5.50;;
59300;SDS011;45073;52.740;6.784;2023-07-16T10:39:16;11.52;;;5.53;;
59300;SDS011;45073;52.740;6.784;2023-07-16T10:41:42;11.73;;;5.75;;
59300;SDS011;45073;52.740;6.784;2023-07-16T10:44:08;10.80;;;5.38;;
59300;SDS011;45073;52.740;6.784;2023-07-16T10:46:35;11.85;;;5.60;;
59300;SDS011;45073;52.740;6.784;2023-07-16T10:49:01;12.57;;;5.72;;
59300;SDS011;45073;52.740;6.784;2023-07-16T10:51:27;12.02;;;5.43;;
59300;SDS011;45073;52.740;6.784;2023-07-16T10:53:56;11.73;;;4.90;;
59300;SDS011;45073;52.740;6.784;2023-07-16T10:56:22;9.85;;;4.80;;
59300;SDS011;45073;52.740;6.784;2023-07-16T10:58:48;10.60;;;5.15;;
59300;SDS011;45073;52.740;6.784;2023-07-16T11:01:14;10.23;;;4.88;;
59300;SDS011;45073;52.740;6.784;2023-07-16T11:03:40;10.48;;;4.85;;
59300;SDS011;45073;52.740;6.784;2023-07-16T11:06:06;12.88;;;5.53;;
59300;SDS011;45073;52.740;6.784;2023-07-16T11:08:33;11.43;;;5.28;;
59300;SDS011;45073;52.740;6.784;2023-07-16T11:10:59;14.68;;;5.40;;
59300;SDS011;45073;52.740;6.784;2023-07-16T11:13:28;10.80;;;5.45;;
59300;SDS011;45073;52.740;6.784;2023-07-16T11:15:55;10.82;;;5.38;;
59300;SDS011;45073;52.740;6.784;2023-07-16T11:18:24;10.70;;;5.40;;
59300;SDS011;45073;52.740;6.784;2023-07-16T11:20:52;11.68;;;5.35;;
59300;SDS011;45073;52.740;6.784;2023-07-16T11:23:18;11.98;;;5.75;;
59300;SDS011;45073;52.740;6.784;2023-07-16T11:25:49;11.15;;;6.05;;
59300;SDS011;45073;52.740;6.784;2023-07-16T11:28:16;12.45;;;6.20;;
59300;SDS011;45073;52.740;6.784;2023-07-16T11:30:42;13.60;;;5.85;;
59300;SDS011;45073;52.740;6.784;2023-07-16T11:33:11;12.65;;;6.25;;
59300;SDS011;45073;52.740;6.784;2023-07-16T11:35:37;10.23;;;5.47;;
59300;SDS011;45073;52.740;6.784;2023-07-16T11:38:07;13.48;;;6.63;;
59300;SDS011;45073;52.740;6.784;2023-07-16T11:40:36;10.77;;;5.35;;
59300;SDS011;45073;52.740;6.784;2023-07-16T11:43:11;11.20;;;5.15;;
59300;SDS011;45073;52.740;6.784;2023-07-16T11:45:37;9.98;;;5.43;;
59300;SDS011;45073;52.740;6.784;2023-07-16T11:48:04;10.82;;;5.38;;
59300;SDS011;45073;52.740;6.784;2023-07-16T11:50:30;11.52;;;5.28;;
59300;SDS011;45073;52.740;6.784;2023-07-16T11:52:58;10.15;;;5.10;;
59300;SDS011;45073;52.740;6.784;2023-07-16T11:55:25;10.57;;;5.30;;
59300;SDS011;45073;52.740;6.784;2023-07-16T11:57:51;11.35;;;5.45;;
59300;SDS011;45073;52.740;6.784;2023-07-16T12:00:17;12.05;;;5.68;;
59300;SDS011;45073;52.740;6.784;2023-07-16T12:02:44;11.35;;;5.68;;
59300;SDS011;45073;52.740;6.784;2023-07-16T12:05:16;12.35;;;4.95;;
59300;SDS011;45073;52.740;6.784;2023-07-16T12:07:45;11.13;;;5.43;;
59300;SDS011;45073;52.740;6.784;2023-07-16T12:10:11;11.73;;;5.63;;
59300;SDS011;45073;52.740;6.784;2023-07-16T12:12:36;12.02;;;5.57;;
59300;SDS011;45073;52.740;6.784;2023-07-16T12:15:03;10.95;;;5.82;;
59300;SDS011;45073;52.740;6.784;2023-07-16T12:17:29;11.90;;;5.22;;
59300;SDS011;45073;52.740;6.784;2023-07-16T12:19:55;14.48;;;6.07;;
59300;SDS011;45073;52.740;6.784;2023-07-16T12:22:20;12.52;;;5.97;;
59300;SDS011;45073;52.740;6.784;2023-07-16T12:24:49;12.60;;;5.45;;
59300;SDS011;45073;52.740;6.784;2023-07-16T12:27:15;10.35;;;5.13;;
59300;SDS011;45073;52.740;6.784;2023-07-16T12:29:41;10.73;;;5.35;;
59300;SDS011;45073;52.740;6.784;2023-07-16T12:32:08;11.00;;;5.30;;
59300;SDS011;45073;52.740;6.784;2023-07-16T12:34:35;11.32;;;5.40;;
59300;SDS011;45073;52.740;6.784;2023-07-16T12:37:00;9.70;;;4.47;;
59300;SDS011;45073;52.740;6.784;2023-07-16T12:39:26;10.40;;;5.43;;
59300;SDS011;45073;52.740;6.784;2023-07-16T12:41:52;12.52;;;5.30;;
59300;SDS011;45073;52.740;6.784;2023-07-16T12:44:17;10.88;;;5.07;;
59300;SDS011;45073;52.740;6.784;2023-07-16T12:46:43;11.10;;;5.10;;
59300;SDS011;45073;52.740;6.784;2023-07-16T12:49:08;11.00;;;5.28;;
59300;SDS011;45073;52.740;6.784;2023-07-16T12:51:34;9.75;;;4.90;;
59300;SDS011;45073;52.740;6.784;2023-07-16T12:53:59;9.98;;;4.55;;
59300;SDS011;45073;52.740;6.784;2023-07-16T12:56:28;11.15;;;5.40;;
59300;SDS011;45073;52.740;6.784;2023-07-16T12:58:53;10.95;;;4.97;;
59300;SDS011;45073;52.740;6.784;2023-07-16T13:01:19;10.55;;;4.85;;
59300;SDS011;45073;52.740;6.784;2023-07-16T13:03:44;11.85;;;5.00;;
59300;SDS011;45073;52.740;6.784;2023-07-16T13:06:10;11.23;;;5.13;;
59300;SDS011;45073;52.740;6.784;2023-07-16T13:08:36;9.18;;;4.85;;
59300;SDS011;45073;52.740;6.784;2023-07-16T13:11:01;10.80;;;4.82;;
59300;SDS011;45073;52.740;6.784;2023-07-16T13:13:27;12.55;;;4.82;;
59300;SDS011;45073;52.740;6.784;2023-07-16T13:15:53;9.30;;;4.60;;
59300;SDS011;45073;52.740;6.784;2023-07-16T13:18:19;10.80;;;4.50;;
59300;SDS011;45073;52.740;6.784;2023-07-16T13:20:45;10.50;;;4.35;;
59300;SDS011;45073;52.740;6.784;2023-07-16T13:23:10;10.70;;;4.93;;
59300;SDS011;45073;52.740;6.784;2023-07-16T13:25:36;10.00;;;4.82;;
59300;SDS011;45073;52.740;6.784;2023-07-16T13:28:04;11.48;;;5.55;;
59300;SDS011;45073;52.740;6.784;2023-07-16T13:30:31;10.75;;;5.35;;
59300;SDS011;45073;52.740;6.784;2023-07-16T13:32:56;13.40;;;4.90;;
59300;SDS011;45073;52.740;6.784;2023-07-16T13:35:22;11.60;;;4.90;;
59300;SDS011;45073;52.740;6.784;2023-07-16T13:37:48;10.77;;;4.82;;
59300;SDS011;45073;52.740;6.784;2023-07-16T13:40:14;10.25;;;5.07;;
59300;SDS011;45073;52.740;6.784;2023-07-16T13:42:39;10.52;;;4.68;;
59300;SDS011;45073;52.740;6.784;2023-07-16T13:45:05;11.73;;;4.80;;
59300;SDS011;45073;52.740;6.784;2023-07-16T13:47:31;12.10;;;5.13;;
59300;SDS011;45073;52.740;6.784;2023-07-16T13:49:57;10.57;;;4.93;;
59300;SDS011;45073;52.740;6.784;2023-07-16T13:52:22;10.00;;;4.70;;
59300;SDS011;45073;52.740;6.784;2023-07-16T13:54:48;10.38;;;4.88;;
59300;SDS011;45073;52.740;6.784;2023-07-16T13:57:14;9.68;;;4.55;;
59300;SDS011;45073;52.740;6.784;2023-07-16T13:59:39;10.02;;;4.63;;
59300;SDS011;45073;52.740;6.784;2023-07-16T14:02:05;9.93;;;4.57;;
59300;SDS011;45073;52.740;6.784;2023-07-16T14:04:31;9.52;;;4.38;;
59300;SDS011;45073;52.740;6.784;2023-07-16T14:06:57;9.57;;;3.70;;
59300;SDS011;45073;52.740;6.784;2023-07-16T14:09:22;9.35;;;4.03;;
59300;SDS011;45073;52.740;6.784;2023-07-16T14:11:48;11.50;;;3.97;;
59300;SDS011;45073;52.740;6.784;2023-07-16T14:14:14;8.70;;;3.90;;
59300;SDS011;45073;52.740;6.784;2023-07-16T14:16:40;7.78;;;3.67;;
59300;SDS011;45073;52.740;6.784;2023-07-16T14:19:05;8.48;;;3.63;;
59300;SDS011;45073;52.740;6.784;2023-07-16T14:21:31;9.50;;;4.00;;
59300;SDS011;45073;52.740;6.784;2023-07-16T14:23:57;8.05;;;3.88;;
59300;SDS011;45073;52.740;6.784;2023-07-16T14:26:23;8.45;;;4.20;;
59300;SDS011;45073;52.740;6.784;2023-07-16T14:28:49;10.68;;;4.32;;
59300;SDS011;45073;52.740;6.784;2023-07-16T14:31:14;7.18;;;3.60;;
59300;SDS011;45073;52.740;6.784;2023-07-16T14:33:40;8.98;;;4.43;;
59300;SDS011;45073;52.740;6.784;2023-07-16T14:36:06;9.60;;;4.30;;
59300;SDS011;45073;52.740;6.784;2023-07-16T14:38:31;11.07;;;4.15;;
59300;SDS011;45073;52.740;6.784;2023-07-16T14:40:57;11.18;;;5.10;;
59300;SDS011;45073;52.740;6.784;2023-07-16T14:43:23;10.20;;;4.05;;
59300;SDS011;45073;52.740;6.784;2023-07-16T14:45:48;10.65;;;4.05;;
59300;SDS011;45073;52.740;6.784;2023-07-16T14:48:14;8.70;;;3.92;;
59300;SDS011;45073;52.740;6.784;2023-07-16T14:50:39;7.20;;;3.10;;